Nordegg, Canada
Current Conditions -  °F | °C
As of 8:08 PM on Wednesday 26 Nov 2014 (Local Time) from CYET Reporting Station
Light Snow Light Snow  
Wind Chill: 13°   Ceiling: 4600
Heat Index: 19°   Visibility: 9mi
Dew Point: 19°   Wind: 5mph
Humidity: 100%   Direction: 40°NE
Pressure: 30.03"   Gusts: NA
Location:  52.47°N, 116.08°W
Report Text: CYET 270308Z AUTO 04004KT 9SM -SN FEW006 SCT017 BKN046 OVC060 M07/M07 A3003 RMK SLP229
Loading
Personal Weather Stations






























Interactive Weather Map New forecast layout! Learn more

10-Day Weather Forecast

Advertisements
Track Severe Weather on mobile